createdAt,value
2023-02-18T00:00:57.790Z,0.97
2023-02-18T00:03:25.171Z,1.03
2023-02-18T00:05:52.062Z,1.10
2023-02-18T00:08:19.031Z,0.90
2023-02-18T00:10:45.755Z,0.83
2023-02-18T00:13:12.560Z,1.30
2023-02-18T00:15:39.589Z,1.20
2023-02-18T00:18:07.404Z,1.10
2023-02-18T00:20:36.212Z,0.93
2023-02-18T00:23:03.287Z,1.03
2023-02-18T00:25:29.847Z,1.00
2023-02-18T00:27:56.354Z,1.20
2023-02-18T00:30:23.660Z,1.10
2023-02-18T00:32:50.179Z,1.20
2023-02-18T00:35:16.784Z,0.80
2023-02-18T00:37:43.931Z,0.93
2023-02-18T00:40:10.639Z,0.80
2023-02-18T00:42:37.149Z,1.07
2023-02-18T00:45:03.827Z,1.07
2023-02-18T00:47:31.180Z,1.00
2023-02-18T00:49:57.920Z,1.00
2023-02-18T00:52:24.673Z,1.00
2023-02-18T00:54:51.232Z,1.17
2023-02-18T00:57:17.817Z,1.30
2023-02-18T00:59:44.371Z,1.30
2023-02-18T01:02:10.873Z,1.10
2023-02-18T01:04:37.492Z,1.00
2023-02-18T01:07:04.059Z,1.20
2023-02-18T01:09:30.613Z,1.10
2023-02-18T01:11:57.320Z,1.40
2023-02-18T01:14:23.904Z,1.10
2023-02-18T01:16:50.422Z,1.10
2023-02-18T01:19:17.100Z,1.20
2023-02-18T01:21:43.587Z,1.17
2023-02-18T01:24:10.255Z,1.30
2023-02-18T01:26:36.877Z,1.10
2023-02-18T01:29:03.727Z,1.43
2023-02-18T01:31:30.397Z,1.20
2023-02-18T01:33:58.816Z,1.13
2023-02-18T01:36:28.388Z,1.00
2023-02-18T01:38:56.280Z,1.40
2023-02-18T01:41:23.166Z,1.30
2023-02-18T01:44:09.691Z,1.10
2023-02-18T01:46:37.501Z,1.17
2023-02-18T01:49:05.605Z,1.00
2023-02-18T01:51:34.208Z,1.30
2023-02-18T01:54:03.239Z,1.07
2023-02-18T01:56:34.620Z,1.27
2023-02-18T01:59:03.415Z,1.10
2023-02-18T02:01:30.967Z,1.30
2023-02-18T02:03:57.552Z,1.57
2023-02-18T02:06:24.366Z,1.53
2023-02-18T02:08:53.621Z,1.00
2023-02-18T02:11:26.239Z,1.50
2023-02-18T02:13:52.760Z,1.00
2023-02-18T02:16:26.842Z,1.40
2023-02-18T02:18:53.381Z,1.40
2023-02-18T02:21:28.827Z,1.10
2023-02-18T02:24:01.325Z,1.20
2023-02-18T02:26:48.013Z,1.40
2023-02-18T02:29:20.872Z,1.20
2023-02-18T02:31:50.235Z,1.10
2023-02-18T02:34:32.086Z,1.23
2023-02-18T02:37:11.164Z,1.17
2023-02-18T02:40:04.208Z,1.03
2023-02-18T02:42:33.620Z,1.10
2023-02-18T02:45:18.824Z,1.20
2023-02-18T02:47:55.759Z,1.30
2023-02-18T02:50:44.635Z,1.20
2023-02-18T02:53:17.859Z,1.20
2023-02-18T02:55:45.056Z,1.57
2023-02-18T02:58:16.327Z,1.10
2023-02-18T03:00:52.170Z,1.20
2023-02-18T03:03:28.494Z,1.37
2023-02-18T03:05:55.307Z,1.10
2023-02-18T03:08:22.413Z,0.87
2023-02-18T03:11:12.320Z,0.87
2023-02-18T03:13:41.884Z,1.40
2023-02-18T03:16:12.665Z,1.00
2023-02-18T03:18:43.105Z,0.97
2023-02-18T03:21:11.872Z,1.20
2023-02-18T03:23:45.324Z,1.30
2023-02-18T03:26:14.388Z,1.10
2023-02-18T03:28:41.748Z,1.37
2023-02-18T03:31:13.439Z,1.00
2023-02-18T03:33:45.653Z,1.07
2023-02-18T03:36:12.843Z,1.00
2023-02-18T03:38:42.514Z,1.10
2023-02-18T03:41:09.020Z,0.80
2023-02-18T03:43:37.130Z,1.17
2023-02-18T03:46:03.960Z,1.00
2023-02-18T03:48:30.580Z,1.20
2023-02-18T03:50:57.100Z,1.10
2023-02-18T03:53:23.716Z,1.00
2023-02-18T03:55:50.330Z,1.03
2023-02-18T03:58:16.858Z,1.07
2023-02-18T04:00:43.460Z,0.80
2023-02-18T04:03:10.002Z,0.83
2023-02-18T04:05:36.641Z,1.00
2023-02-18T04:08:03.273Z,0.93
2023-02-18T04:10:29.798Z,1.10
2023-02-18T04:12:56.284Z,0.90
2023-02-18T04:15:22.834Z,0.93
2023-02-18T04:17:50.065Z,1.00
2023-02-18T04:20:16.752Z,1.20
2023-02-18T04:22:43.358Z,1.30
2023-02-18T04:25:09.936Z,1.27
2023-02-18T04:27:36.650Z,1.10
2023-02-18T04:30:04.017Z,0.87
2023-02-18T04:32:30.713Z,0.90
2023-02-18T04:34:57.217Z,1.03
2023-02-18T04:37:23.711Z,0.90
2023-02-18T04:39:50.404Z,1.10
2023-02-18T04:42:17.032Z,0.93
2023-02-18T04:44:44.417Z,1.23
2023-02-18T04:47:11.737Z,1.00
2023-02-18T04:49:38.287Z,0.97
2023-02-18T04:52:04.976Z,0.90
2023-02-18T04:54:31.478Z,1.33
2023-02-18T04:56:58.098Z,1.30
2023-02-18T04:59:24.897Z,0.77
2023-02-18T05:01:51.432Z,1.03
2023-02-18T05:04:18.246Z,0.90
2023-02-18T05:06:44.839Z,0.87
2023-02-18T05:09:11.479Z,0.90
2023-02-18T05:11:38.182Z,0.77
2023-02-18T05:14:04.948Z,1.20
2023-02-18T05:16:31.531Z,0.93
2023-02-18T05:18:58.139Z,0.97
2023-02-18T05:21:24.636Z,1.83
2023-02-18T05:23:51.148Z,1.37
2023-02-18T05:26:17.782Z,10.00
2023-02-18T05:28:44.295Z,5.17
2023-02-18T05:31:10.877Z,2.10
2023-02-18T05:33:37.445Z,0.90
2023-02-18T05:36:04.197Z,0.80
2023-02-18T05:38:30.690Z,0.90
2023-02-18T05:40:57.228Z,0.83
2023-02-18T05:43:23.737Z,1.37
2023-02-18T05:45:50.257Z,1.50
2023-02-18T05:48:16.822Z,0.90
2023-02-18T05:50:43.405Z,0.80
2023-02-18T05:53:09.896Z,0.83
2023-02-18T05:55:39.104Z,1.07
2023-02-18T05:58:06.117Z,0.83
2023-02-18T06:00:32.708Z,1.20
2023-02-18T06:02:59.360Z,1.20
2023-02-18T06:05:26.002Z,1.13
2023-02-18T06:07:52.968Z,1.00
2023-02-18T06:10:20.297Z,0.70
2023-02-18T06:12:46.826Z,0.73
2023-02-18T06:15:13.346Z,0.80
2023-02-18T06:17:39.859Z,1.37
2023-02-18T06:20:06.715Z,1.10
2023-02-18T06:22:33.267Z,2.57
2023-02-18T06:24:59.825Z,1.40
2023-02-18T06:27:26.388Z,2.30
2023-02-18T06:29:52.906Z,1.10
2023-02-18T06:32:19.584Z,1.00
2023-02-18T06:34:46.216Z,1.20
2023-02-18T06:37:12.991Z,0.90
2023-02-18T06:39:39.908Z,1.03
2023-02-18T06:42:06.402Z,1.50
2023-02-18T06:44:32.971Z,1.00
2023-02-18T06:46:59.996Z,1.50
2023-02-18T06:49:26.715Z,1.83
2023-02-18T06:51:53.257Z,1.40
2023-02-18T06:54:19.748Z,2.10
2023-02-18T06:56:46.367Z,1.50
2023-02-18T06:59:13.891Z,1.83
2023-02-18T07:01:40.437Z,1.47
2023-02-18T07:04:06.977Z,1.20
2023-02-18T07:06:33.582Z,1.30
2023-02-18T07:09:00.164Z,1.50
2023-02-18T07:11:26.677Z,1.67
2023-02-18T07:13:53.239Z,1.53
2023-02-18T07:16:19.841Z,1.80
2023-02-18T07:18:46.359Z,1.10
2023-02-18T07:21:12.910Z,1.40
2023-02-18T07:23:39.450Z,1.30
2023-02-18T07:26:10.657Z,0.93
2023-02-18T07:28:37.381Z,1.37
2023-02-18T07:31:04.353Z,8.10
2023-02-18T07:33:30.921Z,4.40
2023-02-18T07:35:58.416Z,2.40
2023-02-18T07:38:25.880Z,1.80
2023-02-18T07:40:53.155Z,1.13
2023-02-18T07:43:19.658Z,1.10
2023-02-18T07:45:46.226Z,0.80
2023-02-18T07:48:13.031Z,0.90
2023-02-18T07:50:40.651Z,0.73
2023-02-18T07:53:07.544Z,1.20
2023-02-18T07:55:49.238Z,0.80
2023-02-18T07:58:19.269Z,0.90
2023-02-18T08:00:47.651Z,0.90
2023-02-18T08:03:14.794Z,1.83
2023-02-18T08:05:41.291Z,2.10
2023-02-18T08:08:07.853Z,1.60
2023-02-18T08:10:34.350Z,1.10
2023-02-18T08:13:00.928Z,0.77
2023-02-18T08:15:27.410Z,1.07
2023-02-18T08:17:53.935Z,1.10
2023-02-18T08:20:20.469Z,1.00
2023-02-18T08:22:47.024Z,1.13
2023-02-18T08:25:27.510Z,1.10
2023-02-18T08:27:55.428Z,1.20
2023-02-18T08:30:22.054Z,1.03
2023-02-18T08:32:48.583Z,1.60
2023-02-18T08:35:15.122Z,0.90
2023-02-18T08:37:52.790Z,1.60
2023-02-18T08:40:21.084Z,1.10
2023-02-18T08:42:47.664Z,1.00
2023-02-18T08:45:14.181Z,1.10
2023-02-18T08:48:16.645Z,1.00
2023-02-18T08:50:28.266Z,0.97
2023-02-18T08:52:55.038Z,1.00
2023-02-18T08:55:21.811Z,0.93
2023-02-18T08:57:48.884Z,1.30
2023-02-18T09:00:16.707Z,1.60
2023-02-18T09:02:43.456Z,2.33
2023-02-18T09:05:10.497Z,1.23
2023-02-18T09:07:37.173Z,1.27
2023-02-18T09:10:04.052Z,1.30
2023-02-18T09:12:30.762Z,1.37
2023-02-18T09:14:57.310Z,1.40
2023-02-18T09:17:23.933Z,1.30
2023-02-18T09:19:50.446Z,1.33
2023-02-18T09:22:17.284Z,1.60
2023-02-18T09:24:43.922Z,1.60
2023-02-18T09:27:11.423Z,1.40
2023-02-18T09:29:39.104Z,1.63
2023-02-18T09:32:06.130Z,1.27
2023-02-18T09:34:32.923Z,1.47
2023-02-18T09:36:59.476Z,1.83
2023-02-18T09:39:26.100Z,1.93
2023-02-18T09:42:00.809Z,2.43
2023-02-18T09:44:27.266Z,2.10
2023-02-18T09:47:06.279Z,2.10
2023-02-18T09:49:35.669Z,1.90
2023-02-18T09:52:13.943Z,1.90
2023-02-18T09:54:40.471Z,1.60
2023-02-18T09:57:10.844Z,1.73
2023-02-18T09:59:37.488Z,1.90
2023-02-18T10:02:04.066Z,2.10
2023-02-18T10:04:36.634Z,1.63
2023-02-18T10:07:03.799Z,2.70
2023-02-18T10:09:34.368Z,3.17
2023-02-18T10:12:08.140Z,2.10
2023-02-18T10:14:36.048Z,1.90
2023-02-18T10:17:03.452Z,1.47
2023-02-18T10:19:41.108Z,1.90
2023-02-18T10:22:08.788Z,1.90
2023-02-18T10:24:37.977Z,1.90
2023-02-18T10:27:05.621Z,1.80
2023-02-18T10:29:32.368Z,2.10
2023-02-18T10:32:02.129Z,2.10
2023-02-18T10:34:37.505Z,1.90
2023-02-18T10:37:14.018Z,1.83
2023-02-18T10:39:46.785Z,1.70
2023-02-18T10:42:31.690Z,1.77
2023-02-18T10:45:10.422Z,1.70
2023-02-18T10:47:50.680Z,1.80
2023-02-18T10:50:31.828Z,1.53
2023-02-18T10:53:01.619Z,1.80
2023-02-18T10:55:44.472Z,1.63
2023-02-18T10:58:29.381Z,1.70
2023-02-18T11:00:55.981Z,1.67
2023-02-18T11:03:23.601Z,2.00
2023-02-18T11:05:52.491Z,2.10
2023-02-18T11:08:29.056Z,2.30
2023-02-18T11:10:56.366Z,2.33
2023-02-18T11:13:31.758Z,2.53
2023-02-18T11:15:58.377Z,7.70
2023-02-18T11:18:30.999Z,27.37
2023-02-18T11:21:01.810Z,10.17
2023-02-18T11:23:28.611Z,9.93
2023-02-18T11:26:00.735Z,34.03
2023-02-18T11:28:30.296Z,21.47
2023-02-18T11:30:59.980Z,10.00
2023-02-18T11:33:29.621Z,13.77
2023-02-18T11:35:58.029Z,6.80
2023-02-18T11:38:46.087Z,7.23
2023-02-18T11:41:17.515Z,5.87
2023-02-18T11:43:47.978Z,22.63
2023-02-18T11:46:24.469Z,9.47
2023-02-18T11:48:51.692Z,4.87
2023-02-18T11:51:19.795Z,4.70
2023-02-18T11:54:25.201Z,4.03
2023-02-18T11:57:11.653Z,5.00
2023-02-18T11:59:39.167Z,4.73
2023-02-18T12:02:11.686Z,5.30
2023-02-18T12:04:43.588Z,4.80
2023-02-18T12:07:19.267Z,5.87
2023-02-18T12:09:50.716Z,5.07
2023-02-18T12:12:28.443Z,5.27
2023-02-18T12:14:55.525Z,6.60
2023-02-18T12:17:40.927Z,6.30
2023-02-18T12:20:16.865Z,6.30
2023-02-18T12:22:44.942Z,6.17
2023-02-18T12:25:36.462Z,6.13
2023-02-18T12:28:14.335Z,6.20
2023-02-18T12:30:43.680Z,5.60
2023-02-18T12:33:31.638Z,5.73
2023-02-18T12:36:04.469Z,5.90
2023-02-18T12:38:46.051Z,5.87
2023-02-18T12:41:20.052Z,5.40
2023-02-18T12:44:05.547Z,5.00
2023-02-18T12:46:37.985Z,4.93
2023-02-18T12:49:22.966Z,4.47
2023-02-18T12:51:55.510Z,3.80
2023-02-18T12:54:22.033Z,3.53
2023-02-18T12:56:48.504Z,2.80
2023-02-18T12:59:33.791Z,2.90
2023-02-18T13:02:18.424Z,2.43
2023-02-18T13:04:52.768Z,2.37
2023-02-18T13:07:19.242Z,2.13
2023-02-18T13:10:04.356Z,1.67
2023-02-18T13:12:49.578Z,1.40
2023-02-18T13:15:18.915Z,1.40
2023-02-18T13:17:45.843Z,1.20
2023-02-18T13:20:28.478Z,1.00
2023-02-18T13:22:55.021Z,1.00
2023-02-18T13:25:22.116Z,1.30
2023-02-18T13:27:51.435Z,0.90
2023-02-18T13:30:20.884Z,1.00
2023-02-18T13:32:54.141Z,0.80
2023-02-18T13:35:28.784Z,1.00
2023-02-18T13:38:04.385Z,0.87
2023-02-18T13:40:31.989Z,0.80
2023-02-18T13:43:17.252Z,0.87
2023-02-18T13:45:43.840Z,0.80
2023-02-18T13:48:42.506Z,0.73
2023-02-18T13:51:09.628Z,0.70
2023-02-18T13:53:37.404Z,0.60
2023-02-18T13:56:05.336Z,0.50
2023-02-18T13:58:34.434Z,0.60
2023-02-18T14:01:02.987Z,0.60
2023-02-18T14:03:45.033Z,0.63
2023-02-18T14:06:15.688Z,0.60
2023-02-18T14:08:42.544Z,1.10
2023-02-18T14:11:12.063Z,2.27
2023-02-18T14:13:42.782Z,1.10
2023-02-18T14:16:10.663Z,1.00
2023-02-18T14:18:40.049Z,0.80
2023-02-18T14:21:12.508Z,1.00
2023-02-18T14:23:39.115Z,1.30
2023-02-18T14:26:10.384Z,1.20
2023-02-18T14:28:39.123Z,1.67
2023-02-18T14:31:17.017Z,1.50
2023-02-18T14:33:55.844Z,1.17
2023-02-18T14:36:40.870Z,0.83
2023-02-18T14:39:22.442Z,1.80
2023-02-18T14:41:56.818Z,0.90
2023-02-18T14:44:23.299Z,1.27
2023-02-18T14:47:08.459Z,3.47
2023-02-18T14:49:55.232Z,1.57
2023-02-18T14:52:31.087Z,2.47
2023-02-18T14:54:58.280Z,1.10
2023-02-18T14:57:33.082Z,3.10
2023-02-18T14:59:59.770Z,1.60
2023-02-18T15:02:30.364Z,1.50
2023-02-18T15:05:16.617Z,4.13
2023-02-18T15:07:54.440Z,1.50
2023-02-18T15:10:20.981Z,2.20
2023-02-18T15:12:47.522Z,1.70
2023-02-18T15:15:15.690Z,1.30
2023-02-18T15:17:45.844Z,1.20
2023-02-18T15:20:12.573Z,5.10
2023-02-18T15:22:39.138Z,1.83
2023-02-18T15:25:05.915Z,1.70
2023-02-18T15:27:34.294Z,1.13
2023-02-18T15:30:30.816Z,1.17
2023-02-18T15:32:58.960Z,1.13
2023-02-18T15:35:30.866Z,0.90
2023-02-18T15:37:59.042Z,1.90
2023-02-18T15:40:29.611Z,1.13
2023-02-18T15:42:57.372Z,0.77
2023-02-18T15:45:25.370Z,0.90
2023-02-18T15:47:53.319Z,0.90
2023-02-18T15:50:25.127Z,0.90
2023-02-18T15:52:52.205Z,0.80
2023-02-18T15:55:31.518Z,0.77
2023-02-18T15:58:00.704Z,0.83
2023-02-18T16:00:33.077Z,1.00
2023-02-18T16:03:18.218Z,0.80
2023-02-18T16:05:44.738Z,0.80
2023-02-18T16:08:31.494Z,0.73
2023-02-18T16:11:02.963Z,0.83
2023-02-18T16:13:31.378Z,0.70
2023-02-18T16:16:00.850Z,0.90
2023-02-18T16:18:29.425Z,0.80
2023-02-18T16:20:57.877Z,1.13
2023-02-18T16:23:31.121Z,0.70
2023-02-18T16:26:08.833Z,0.60
2023-02-18T16:28:35.506Z,0.70
2023-02-18T16:31:02.165Z,0.50
2023-02-18T16:33:28.695Z,0.70
2023-02-18T16:35:57.739Z,0.67
2023-02-18T16:38:25.183Z,0.70
2023-02-18T16:40:53.634Z,0.60
2023-02-18T16:43:21.427Z,0.57
2023-02-18T16:45:49.954Z,0.57
2023-02-18T16:48:32.929Z,0.60
2023-02-18T16:51:00.521Z,0.80
2023-02-18T16:53:27.071Z,1.13
2023-02-18T16:55:53.731Z,0.60
2023-02-18T16:58:20.266Z,0.90
2023-02-18T17:00:47.301Z,1.07
2023-02-18T17:03:14.180Z,1.00
2023-02-18T17:05:41.186Z,1.00
2023-02-18T17:08:20.755Z,0.87
2023-02-18T17:10:48.247Z,1.00
2023-02-18T17:13:15.892Z,1.03
2023-02-18T17:15:42.808Z,0.90
2023-02-18T17:18:09.766Z,0.97
2023-02-18T17:20:36.563Z,1.10
2023-02-18T17:23:03.063Z,1.10
2023-02-18T17:25:31.429Z,0.93
2023-02-18T17:27:57.946Z,1.00
2023-02-18T17:30:24.863Z,0.93
2023-02-18T17:32:51.575Z,1.10
2023-02-18T17:35:19.159Z,1.20
2023-02-18T17:37:45.722Z,0.90
2023-02-18T17:40:16.010Z,1.13
2023-02-18T17:42:42.677Z,1.83
2023-02-18T17:45:28.772Z,1.63
2023-02-18T17:47:56.175Z,10.77
2023-02-18T17:50:23.220Z,2.23
2023-02-18T17:52:49.824Z,1.20
2023-02-18T17:55:18.316Z,1.20
2023-02-18T17:57:45.120Z,1.70
2023-02-18T18:00:12.760Z,5.00
2023-02-18T18:02:39.358Z,3.03
2023-02-18T18:05:06.196Z,1.73
2023-02-18T18:07:32.738Z,1.50
2023-02-18T18:09:59.242Z,1.20
2023-02-18T18:12:25.936Z,1.20
2023-02-18T18:14:52.428Z,1.27
2023-02-18T18:17:18.934Z,1.67
2023-02-18T18:19:45.455Z,1.50
2023-02-18T18:22:11.962Z,1.60
2023-02-18T18:24:38.477Z,1.47
2023-02-18T18:27:04.999Z,1.70
2023-02-18T18:29:31.553Z,2.00
2023-02-18T18:31:58.112Z,1.63
2023-02-18T18:34:24.629Z,1.73
2023-02-18T18:36:51.189Z,2.00
2023-02-18T18:39:17.748Z,1.57
2023-02-18T18:41:44.231Z,1.90
2023-02-18T18:44:11.560Z,1.80
2023-02-18T18:46:38.105Z,2.00
2023-02-18T18:49:04.698Z,1.80
2023-02-18T18:51:32.245Z,1.73
2023-02-18T18:53:58.720Z,2.13
2023-02-18T18:56:25.568Z,2.17
2023-02-18T18:58:52.435Z,2.23
2023-02-18T19:01:22.603Z,2.10
2023-02-18T19:03:49.702Z,1.50
2023-02-18T19:06:17.244Z,1.50
2023-02-18T19:08:45.331Z,1.30
2023-02-18T19:11:12.896Z,1.20
2023-02-18T19:13:39.649Z,1.47
2023-02-18T19:16:08.583Z,1.20
2023-02-18T19:18:35.418Z,1.30
2023-02-18T19:21:02.244Z,1.40
2023-02-18T19:23:28.883Z,0.70
2023-02-18T19:25:56.084Z,1.00
2023-02-18T19:28:22.653Z,1.13
2023-02-18T19:30:49.272Z,1.83
2023-02-18T19:33:16.172Z,1.00
2023-02-18T19:35:43.146Z,1.30
2023-02-18T19:38:10.910Z,1.47
2023-02-18T19:40:38.171Z,1.80
2023-02-18T19:43:05.339Z,2.30
2023-02-18T19:45:32.198Z,2.70
2023-02-18T19:47:59.300Z,2.17
2023-02-18T19:50:26.830Z,1.93
2023-02-18T19:52:54.545Z,1.97
2023-02-18T19:55:21.747Z,2.43
2023-02-18T19:57:48.429Z,2.80
2023-02-18T20:00:15.955Z,2.30
2023-02-18T20:02:42.978Z,2.20
2023-02-18T20:05:10.657Z,2.27
2023-02-18T20:07:37.475Z,2.70
2023-02-18T20:10:04.979Z,2.20
2023-02-18T20:12:31.981Z,1.80
2023-02-18T20:14:58.654Z,2.47
2023-02-18T20:17:25.498Z,2.70
2023-02-18T20:19:52.044Z,2.60
2023-02-18T20:22:18.872Z,4.50
2023-02-18T20:24:45.483Z,6.33
2023-02-18T20:27:12.749Z,3.70
2023-02-18T20:29:39.538Z,5.40
2023-02-18T20:32:06.481Z,4.27
2023-02-18T20:34:33.087Z,2.90
2023-02-18T20:36:59.796Z,3.00
2023-02-18T20:39:26.332Z,3.33
2023-02-18T20:41:52.896Z,2.70
2023-02-18T20:44:20.318Z,3.40
2023-02-18T20:46:49.142Z,3.47
2023-02-18T20:49:16.720Z,2.87
2023-02-18T20:51:43.554Z,3.00
2023-02-18T20:54:12.541Z,2.37
2023-02-18T20:56:39.203Z,2.20
2023-02-18T20:59:05.988Z,2.47
2023-02-18T21:01:32.603Z,1.90
2023-02-18T21:03:59.178Z,1.97
2023-02-18T21:06:25.881Z,1.70
2023-02-18T21:08:53.316Z,2.00
2023-02-18T21:11:20.905Z,4.77
2023-02-18T21:13:48.082Z,1.90
2023-02-18T21:16:15.637Z,1.80
2023-02-18T21:18:42.300Z,2.10
2023-02-18T21:21:09.650Z,1.97
2023-02-18T21:23:36.819Z,3.87
2023-02-18T21:26:07.912Z,3.03
2023-02-18T21:28:34.548Z,2.60
2023-02-18T21:31:01.354Z,2.43
2023-02-18T21:33:28.054Z,2.50
2023-02-18T21:35:54.558Z,2.20
2023-02-18T21:38:21.186Z,2.40
2023-02-18T21:40:48.020Z,6.97
2023-02-18T21:43:14.581Z,10.97
2023-02-18T21:45:41.099Z,8.83
2023-02-18T21:48:26.261Z,9.70
2023-02-18T21:50:52.746Z,6.03
2023-02-18T21:53:19.339Z,5.20
2023-02-18T21:55:52.456Z,3.77
2023-02-18T21:58:28.711Z,2.77
2023-02-18T22:00:58.371Z,2.50
2023-02-18T22:03:24.989Z,1.90
2023-02-18T22:05:51.562Z,1.97
2023-02-18T22:08:18.105Z,2.27
2023-02-18T22:10:44.658Z,2.30
2023-02-18T22:13:11.156Z,1.80
2023-02-18T22:15:38.256Z,2.90
2023-02-18T22:18:05.819Z,4.83
2023-02-18T22:20:32.479Z,3.33
2023-02-18T22:22:58.960Z,6.37
2023-02-18T22:25:25.506Z,3.53
2023-02-18T22:27:51.999Z,1.97
2023-02-18T22:30:18.855Z,1.90
2023-02-18T22:32:45.409Z,2.20
2023-02-18T22:35:11.963Z,2.10
2023-02-18T22:37:38.552Z,2.17
2023-02-18T22:40:05.326Z,2.00
2023-02-18T22:42:31.857Z,2.20
2023-02-18T22:45:02.692Z,2.00
2023-02-18T22:47:29.561Z,2.37
2023-02-18T22:49:56.055Z,2.60
2023-02-18T22:52:22.613Z,2.20
2023-02-18T22:54:49.122Z,2.40
2023-02-18T22:57:15.612Z,2.73
2023-02-18T22:59:42.201Z,2.57
2023-02-18T23:02:09.024Z,2.40
2023-02-18T23:04:35.642Z,2.20
2023-02-18T23:07:02.230Z,2.30
2023-02-18T23:09:28.851Z,1.80
2023-02-18T23:11:57.431Z,2.00
2023-02-18T23:14:24.905Z,1.50
2023-02-18T23:17:12.744Z,1.30
2023-02-18T23:19:47.304Z,1.30
2023-02-18T23:22:15.486Z,1.30
2023-02-18T23:24:43.752Z,0.90
2023-02-18T23:27:11.705Z,0.93
2023-02-18T23:29:38.530Z,0.70
2023-02-18T23:32:05.513Z,1.00
2023-02-18T23:34:32.227Z,1.00
2023-02-18T23:36:59.020Z,0.90
2023-02-18T23:39:25.945Z,1.00
2023-02-18T23:41:53.712Z,1.10
2023-02-18T23:44:21.746Z,1.47
2023-02-18T23:46:48.401Z,1.50
2023-02-18T23:49:19.701Z,3.13
2023-02-18T23:51:46.241Z,5.47
2023-02-18T23:54:12.882Z,3.90
2023-02-18T23:56:39.459Z,2.17
2023-02-18T23:59:06.509Z,2.30
